createdAt,value
2023-01-10T00:00:44.172Z,2.97
2023-01-10T00:03:12.423Z,2.15
2023-01-10T00:05:40.641Z,2.20
2023-01-10T00:08:09.037Z,2.38
2023-01-10T00:10:36.736Z,2.78
2023-01-10T00:13:23.287Z,2.78
2023-01-10T00:15:51.346Z,2.25
2023-01-10T00:18:19.094Z,2.08
2023-01-10T00:20:47.740Z,2.95
2023-01-10T00:23:15.436Z,1.77
2023-01-10T00:25:43.073Z,2.15
2023-01-10T00:28:19.985Z,2.08
2023-01-10T00:30:58.453Z,2.17
2023-01-10T00:33:26.275Z,2.25
2023-01-10T00:35:53.967Z,1.85
2023-01-10T00:38:21.985Z,2.15
2023-01-10T00:40:49.642Z,2.65
2023-01-10T00:43:36.476Z,1.95
2023-01-10T00:46:04.426Z,1.67
2023-01-10T00:48:32.071Z,1.88
2023-01-10T00:50:59.749Z,1.92
2023-01-10T00:53:27.397Z,1.90
2023-01-10T00:55:55.442Z,2.35
2023-01-10T00:58:24.659Z,2.20
2023-01-10T01:00:52.342Z,1.75
2023-01-10T01:03:21.343Z,2.10
2023-01-10T01:05:49.772Z,1.85
2023-01-10T01:08:17.958Z,2.42
2023-01-10T01:10:45.841Z,2.60
2023-01-10T01:13:15.217Z,2.05
2023-01-10T01:15:44.331Z,2.25
2023-01-10T01:18:15.405Z,2.20
2023-01-10T01:20:43.248Z,1.25
2023-01-10T01:23:10.949Z,1.33
2023-01-10T01:25:38.707Z,3.13
2023-01-10T01:28:06.452Z,2.58
2023-01-10T01:30:34.071Z,2.38
2023-01-10T01:33:03.167Z,2.28
2023-01-10T01:35:31.078Z,1.98
2023-01-10T01:37:58.892Z,2.58
2023-01-10T01:40:27.012Z,2.42
2023-01-10T01:42:55.978Z,3.25
2023-01-10T01:45:33.469Z,1.83
2023-01-10T01:48:04.957Z,1.80
2023-01-10T01:50:35.647Z,2.25
2023-01-10T01:53:04.398Z,2.10
2023-01-10T01:55:33.763Z,1.88
2023-01-10T01:58:03.569Z,1.55
2023-01-10T02:00:31.243Z,2.17
2023-01-10T02:03:02.997Z,2.10
2023-01-10T02:05:33.475Z,2.50
2023-01-10T02:08:02.669Z,2.25
2023-01-10T02:10:34.121Z,2.60
2023-01-10T02:13:03.577Z,2.15
2023-01-10T02:15:31.221Z,2.13
2023-01-10T02:17:59.299Z,1.80
2023-01-10T02:20:27.629Z,2.47
2023-01-10T02:23:13.936Z,2.03
2023-01-10T02:25:57.943Z,2.72
2023-01-10T02:28:44.835Z,2.53
2023-01-10T02:31:38.623Z,2.05
2023-01-10T02:34:09.405Z,1.92
2023-01-10T02:36:40.756Z,1.95
2023-01-10T02:39:12.818Z,2.17
2023-01-10T02:41:43.325Z,2.00
2023-01-10T02:44:18.294Z,1.92
2023-01-10T02:46:47.545Z,2.20
2023-01-10T02:49:16.603Z,2.40
2023-01-10T02:51:44.240Z,1.92
2023-01-10T02:54:13.967Z,2.10
2023-01-10T02:56:59.525Z,3.75
2023-01-10T02:59:33.425Z,4.45
2023-01-10T03:02:04.204Z,2.30
2023-01-10T03:04:39.215Z,2.20
2023-01-10T03:07:11.360Z,2.20
2023-01-10T03:09:46.385Z,2.58
2023-01-10T03:12:16.005Z,3.03
2023-01-10T03:14:44.817Z,1.98
2023-01-10T03:17:13.098Z,2.70
2023-01-10T03:19:44.534Z,2.22
2023-01-10T03:22:12.837Z,2.08
2023-01-10T03:24:42.397Z,2.05
2023-01-10T03:27:12.158Z,2.33
2023-01-10T03:29:45.726Z,2.22
2023-01-10T03:32:14.955Z,2.50
2023-01-10T03:34:44.655Z,2.38
2023-01-10T03:37:14.699Z,2.30
2023-01-10T03:39:45.091Z,1.92
2023-01-10T03:42:14.784Z,2.10
2023-01-10T03:44:45.835Z,2.30
2023-01-10T03:47:17.118Z,2.50
2023-01-10T03:49:48.329Z,2.67
2023-01-10T03:52:17.205Z,2.65
2023-01-10T03:54:45.141Z,1.98
2023-01-10T03:57:16.567Z,3.15
2023-01-10T03:59:44.484Z,2.88
2023-01-10T04:02:12.268Z,2.38
2023-01-10T04:04:40.108Z,2.15
2023-01-10T04:07:09.110Z,2.45
2023-01-10T04:09:36.797Z,2.90
2023-01-10T04:12:04.733Z,3.20
2023-01-10T04:14:32.897Z,2.28
2023-01-10T04:17:00.719Z,2.42
2023-01-10T04:19:28.356Z,2.95
2023-01-10T04:21:56.049Z,3.20
2023-01-10T04:24:25.863Z,3.10
2023-01-10T04:26:53.549Z,2.28
2023-01-10T04:29:21.181Z,2.67
2023-01-10T04:31:49.548Z,3.47
2023-01-10T04:34:17.521Z,2.97
2023-01-10T04:36:45.191Z,2.17
2023-01-10T04:39:12.907Z,3.05
2023-01-10T04:41:42.060Z,1.92
2023-01-10T04:44:09.930Z,2.97
2023-01-10T04:46:37.593Z,2.83
2023-01-10T04:49:06.134Z,3.53
2023-01-10T04:51:33.873Z,2.80
2023-01-10T04:54:01.535Z,3.20
2023-01-10T04:56:29.201Z,2.55
2023-01-10T04:58:58.203Z,3.08
2023-01-10T05:01:26.564Z,2.60
2023-01-10T05:03:55.096Z,3.00
2023-01-10T05:06:24.480Z,3.78
2023-01-10T05:08:52.177Z,2.72
2023-01-10T05:11:20.112Z,2.13
2023-01-10T05:13:48.234Z,2.65
2023-01-10T05:16:17.637Z,1.90
2023-01-10T05:18:45.859Z,2.55
2023-01-10T05:21:14.402Z,2.08
2023-01-10T05:23:42.118Z,2.97
2023-01-10T05:26:10.937Z,2.78
2023-01-10T05:28:38.760Z,2.88
2023-01-10T05:31:06.822Z,3.00
2023-01-10T05:33:35.813Z,2.95
2023-01-10T05:36:04.147Z,3.25
2023-01-10T05:38:32.617Z,3.50
2023-01-10T05:41:00.891Z,2.80
2023-01-10T05:43:28.942Z,2.30
2023-01-10T05:45:56.601Z,3.42
2023-01-10T05:48:24.743Z,3.10
2023-01-10T05:50:54.286Z,2.85
2023-01-10T05:53:22.236Z,3.88
2023-01-10T05:55:53.935Z,2.83
2023-01-10T05:58:21.844Z,3.25
2023-01-10T06:00:49.519Z,3.55
2023-01-10T06:03:17.536Z,2.72
2023-01-10T06:05:46.738Z,4.35
2023-01-10T06:08:17.582Z,2.90
2023-01-10T06:10:45.544Z,3.67
2023-01-10T06:13:13.224Z,3.72
2023-01-10T06:15:41.012Z,2.97
2023-01-10T06:18:11.846Z,1.63
2023-01-10T06:20:39.863Z,2.05
2023-01-10T06:23:07.562Z,2.22
2023-01-10T06:25:40.515Z,2.90
2023-01-10T06:28:08.415Z,1.77
2023-01-10T06:30:36.240Z,2.17
2023-01-10T06:33:04.092Z,2.13
2023-01-10T06:35:34.701Z,2.05
2023-01-10T06:38:02.550Z,2.05
2023-01-10T06:40:30.697Z,2.38
2023-01-10T06:43:00.525Z,2.60
2023-01-10T06:45:28.555Z,3.08
2023-01-10T06:47:56.221Z,2.03
2023-01-10T06:50:24.177Z,2.38
2023-01-10T06:52:56.199Z,1.65
2023-01-10T06:55:24.245Z,2.47
2023-01-10T06:57:55.992Z,3.78
2023-01-10T07:00:25.575Z,2.15
2023-01-10T07:02:54.485Z,3.63
2023-01-10T07:05:22.143Z,2.42
2023-01-10T07:07:49.878Z,2.65
2023-01-10T07:10:17.962Z,2.92
2023-01-10T07:12:45.750Z,2.80
2023-01-10T07:15:13.407Z,2.80
2023-01-10T07:17:42.492Z,2.03
2023-01-10T07:20:10.950Z,2.55
2023-01-10T07:22:38.643Z,1.92
2023-01-10T07:25:06.985Z,2.15
2023-01-10T07:27:34.833Z,2.47
2023-01-10T07:30:02.508Z,1.77
2023-01-10T07:32:30.172Z,2.47
2023-01-10T07:34:59.230Z,2.35
2023-01-10T07:37:26.897Z,2.60
2023-01-10T07:39:54.587Z,3.08
2023-01-10T07:42:22.256Z,2.13
2023-01-10T07:44:50.045Z,2.30
2023-01-10T07:47:17.696Z,2.65
2023-01-10T07:49:45.340Z,2.55
2023-01-10T07:52:14.525Z,3.03
2023-01-10T07:54:42.239Z,2.00
2023-01-10T07:57:09.923Z,2.47
2023-01-10T07:59:37.731Z,2.53
2023-01-10T08:02:05.372Z,2.58
2023-01-10T08:04:33.201Z,2.42
2023-01-10T08:07:00.845Z,3.35
2023-01-10T08:09:29.908Z,2.90
2023-01-10T08:11:57.552Z,2.65
2023-01-10T08:14:25.452Z,3.40
2023-01-10T08:16:53.405Z,3.30
2023-01-10T08:19:21.047Z,2.92
2023-01-10T08:21:48.870Z,2.13
2023-01-10T08:24:16.515Z,2.50
2023-01-10T08:26:45.548Z,2.58
2023-01-10T08:29:13.221Z,2.60
2023-01-10T08:31:41.981Z,2.78
2023-01-10T08:34:09.628Z,2.63
2023-01-10T08:36:37.524Z,3.15
2023-01-10T08:39:05.350Z,4.00
2023-01-10T08:41:33.009Z,2.83
2023-01-10T08:44:02.089Z,3.45
2023-01-10T08:46:29.784Z,2.58
2023-01-10T08:48:57.893Z,2.58
2023-01-10T08:51:25.811Z,2.95
2023-01-10T08:53:53.483Z,2.78
2023-01-10T08:56:21.107Z,3.00
2023-01-10T08:58:48.801Z,2.45
2023-01-10T09:01:17.970Z,2.15
2023-01-10T09:03:46.018Z,3.28
2023-01-10T09:06:13.796Z,3.13
2023-01-10T09:08:41.439Z,2.80
2023-01-10T09:11:09.250Z,3.05
2023-01-10T09:13:36.959Z,3.47
2023-01-10T09:16:05.119Z,3.88
2023-01-10T09:18:34.411Z,3.17
2023-01-10T09:21:03.019Z,2.90
2023-01-10T09:23:30.687Z,3.05
2023-01-10T09:25:58.825Z,1.80
2023-01-10T09:28:26.503Z,2.88
2023-01-10T09:30:54.483Z,2.50
2023-01-10T09:33:22.288Z,3.08
2023-01-10T09:35:52.581Z,2.65
2023-01-10T09:38:22.314Z,2.25
2023-01-10T09:41:11.046Z,2.58
2023-01-10T09:43:45.138Z,2.33
2023-01-10T09:46:16.411Z,3.28
2023-01-10T09:48:46.320Z,2.50
2023-01-10T09:51:23.824Z,1.83
2023-01-10T09:53:53.820Z,2.08
2023-01-10T09:56:23.970Z,2.67
2023-01-10T09:58:51.620Z,2.38
2023-01-10T10:01:20.964Z,2.35
2023-01-10T10:03:53.498Z,2.17
2023-01-10T10:06:24.003Z,2.47
2023-01-10T10:08:52.038Z,1.90
2023-01-10T10:11:38.899Z,2.80
2023-01-10T10:14:10.100Z,2.05
2023-01-10T10:16:43.238Z,2.40
2023-01-10T10:19:14.003Z,1.98
2023-01-10T10:21:46.509Z,2.25
2023-01-10T10:24:29.004Z,2.17
2023-01-10T10:26:58.764Z,2.30
2023-01-10T10:29:48.755Z,2.97
2023-01-10T10:32:25.793Z,2.38
2023-01-10T10:34:54.844Z,2.38
2023-01-10T10:37:32.909Z,2.78
2023-01-10T10:40:02.214Z,2.65
2023-01-10T10:42:31.263Z,2.50
2023-01-10T10:45:00.972Z,2.42
2023-01-10T10:47:31.054Z,2.03
2023-01-10T10:50:03.701Z,2.15
2023-01-10T10:52:35.690Z,3.00
2023-01-10T10:55:04.354Z,2.17
2023-01-10T10:57:33.485Z,2.35
2023-01-10T11:00:02.862Z,2.67
2023-01-10T11:02:31.995Z,3.35
2023-01-10T11:05:03.248Z,2.38
2023-01-10T11:07:34.236Z,2.50
2023-01-10T11:10:17.329Z,2.58
2023-01-10T11:12:48.073Z,1.88
2023-01-10T11:15:35.952Z,2.65
2023-01-10T11:18:05.229Z,2.05
2023-01-10T11:20:33.007Z,3.13
2023-01-10T11:23:02.383Z,2.95
2023-01-10T11:25:33.049Z,2.17
2023-01-10T11:28:02.025Z,2.25
2023-01-10T11:30:31.379Z,2.40
2023-01-10T11:33:01.499Z,2.33
2023-01-10T11:35:33.305Z,2.10
2023-01-10T11:38:03.318Z,2.38
2023-01-10T11:40:31.702Z,2.80
2023-01-10T11:42:59.955Z,2.35
2023-01-10T11:45:30.062Z,2.58
2023-01-10T11:48:00.556Z,2.58
2023-01-10T11:50:29.206Z,2.42
2023-01-10T11:52:57.672Z,2.22
2023-01-10T11:55:30.065Z,3.20
2023-01-10T11:58:00.003Z,2.55
2023-01-10T12:00:35.558Z,4.55
2023-01-10T12:03:03.463Z,2.83
2023-01-10T12:05:31.276Z,2.55
2023-01-10T12:07:59.782Z,2.28
2023-01-10T12:10:29.783Z,2.22
2023-01-10T12:12:58.274Z,2.85
2023-01-10T12:15:27.515Z,2.53
2023-01-10T12:17:56.560Z,1.85
2023-01-10T12:20:24.796Z,2.70
2023-01-10T12:22:54.533Z,2.15
2023-01-10T12:25:23.098Z,3.38
2023-01-10T12:27:52.243Z,2.20
2023-01-10T12:30:21.978Z,2.55
2023-01-10T12:32:52.665Z,2.20
2023-01-10T12:35:21.725Z,2.22
2023-01-10T12:37:52.497Z,2.78
2023-01-10T12:40:24.939Z,2.80
2023-01-10T12:43:13.399Z,2.40
2023-01-10T12:45:43.442Z,2.35
2023-01-10T12:48:14.850Z,3.17
2023-01-10T12:50:44.731Z,3.08
2023-01-10T12:53:16.597Z,2.38
2023-01-10T12:55:46.497Z,2.45
2023-01-10T12:58:18.700Z,1.90
2023-01-10T13:00:49.038Z,1.83
2023-01-10T13:03:20.170Z,1.70
2023-01-10T13:05:49.642Z,2.58
2023-01-10T13:08:18.796Z,1.77
2023-01-10T13:10:47.356Z,2.38
2023-01-10T13:13:21.136Z,2.47
2023-01-10T13:15:51.052Z,2.20
2023-01-10T13:18:20.183Z,1.92
2023-01-10T13:20:49.841Z,2.72
2023-01-10T13:23:26.493Z,2.30
2023-01-10T13:25:58.671Z,2.22
2023-01-10T13:28:29.485Z,2.50
2023-01-10T13:30:58.097Z,1.77
2023-01-10T13:33:26.915Z,2.00
2023-01-10T13:35:55.423Z,3.38
2023-01-10T13:38:24.159Z,1.45
2023-01-10T13:40:58.979Z,2.05
2023-01-10T13:43:34.363Z,1.65
2023-01-10T13:48:29.768Z,2.33
2023-01-10T13:51:17.907Z,2.20
2023-01-10T13:53:57.257Z,1.77
2023-01-10T13:56:35.772Z,1.63
2023-01-10T13:59:23.441Z,1.90
2023-01-10T14:02:09.934Z,2.00
2023-01-10T14:04:38.781Z,1.30
2023-01-10T14:07:14.318Z,1.52
2023-01-10T14:09:45.492Z,1.33
2023-01-10T14:12:24.675Z,1.42
2023-01-10T14:14:56.070Z,1.52
2023-01-10T14:17:25.439Z,1.63
2023-01-10T14:20:00.473Z,1.20
2023-01-10T14:22:31.185Z,1.42
2023-01-10T14:25:00.293Z,1.50
2023-01-10T14:27:29.934Z,1.60
2023-01-10T14:30:00.072Z,1.60
2023-01-10T14:32:34.477Z,1.60
2023-01-10T14:35:02.995Z,1.08
2023-01-10T14:37:35.231Z,1.35
2023-01-10T14:40:05.334Z,1.40
2023-01-10T14:42:33.126Z,1.30
2023-01-10T14:45:03.759Z,1.30
2023-01-10T14:47:32.906Z,1.98
2023-01-10T14:50:01.669Z,1.08
2023-01-10T14:52:29.567Z,1.00
2023-01-10T14:55:03.979Z,1.20
2023-01-10T14:57:31.860Z,1.00
2023-01-10T15:00:06.088Z,1.25
2023-01-10T15:02:34.147Z,1.10
2023-01-10T15:05:07.724Z,1.73
2023-01-10T15:07:35.449Z,0.90
2023-01-10T15:10:06.057Z,1.02
2023-01-10T15:12:36.065Z,1.17
2023-01-10T15:15:06.792Z,0.70
2023-01-10T15:17:35.666Z,1.00
2023-01-10T15:20:04.709Z,0.80
2023-01-10T15:22:32.939Z,1.35
2023-01-10T15:25:01.779Z,0.93
2023-01-10T15:27:32.169Z,1.08
2023-01-10T15:30:00.201Z,0.90
2023-01-10T15:32:30.313Z,1.27
2023-01-10T15:34:58.553Z,1.25
2023-01-10T15:37:27.325Z,1.02
2023-01-10T15:39:55.676Z,1.00
2023-01-10T15:42:26.401Z,0.88
2023-01-10T15:44:55.486Z,1.13
2023-01-10T15:47:44.616Z,1.30
2023-01-10T15:50:21.015Z,1.10
2023-01-10T15:52:49.195Z,1.30
2023-01-10T15:55:37.315Z,1.40
2023-01-10T15:58:05.405Z,1.65
2023-01-10T16:00:35.947Z,1.30
2023-01-10T16:03:03.830Z,1.20
2023-01-10T16:05:32.917Z,1.65
2023-01-10T16:08:01.918Z,1.73
2023-01-10T16:10:31.684Z,1.83
2023-01-10T16:13:25.119Z,1.38
2023-01-10T16:15:54.706Z,1.88
2023-01-10T16:18:22.681Z,1.85
2023-01-10T16:20:52.750Z,1.80
2023-01-10T16:23:22.408Z,2.05
2023-01-10T16:25:51.272Z,2.03
2023-01-10T16:28:20.182Z,2.13
2023-01-10T16:30:48.559Z,2.67
2023-01-10T16:33:17.748Z,2.28
2023-01-10T16:35:45.753Z,2.65
2023-01-10T16:38:15.828Z,2.35
2023-01-10T16:40:44.525Z,3.10
2023-01-10T16:43:21.768Z,2.60
2023-01-10T16:45:50.397Z,2.83
2023-01-10T16:48:18.548Z,3.28
2023-01-10T16:50:46.642Z,3.08
2023-01-10T16:53:16.333Z,3.47
2023-01-10T16:55:45.217Z,3.10
2023-01-10T16:58:13.495Z,3.60
2023-01-10T17:00:41.952Z,3.13
2023-01-10T17:03:12.473Z,3.10
2023-01-10T17:05:40.724Z,3.17
2023-01-10T17:08:08.354Z,2.80
2023-01-10T17:10:37.573Z,3.25
2023-01-10T17:13:05.889Z,3.30
2023-01-10T17:15:34.940Z,3.28
2023-01-10T17:18:02.686Z,3.72
2023-01-10T17:20:30.822Z,3.25
2023-01-10T17:22:58.815Z,3.10
2023-01-10T17:25:27.763Z,3.28
2023-01-10T17:27:56.782Z,4.07
2023-01-10T17:30:24.502Z,3.53
2023-01-10T17:32:52.124Z,3.80
2023-01-10T17:35:22.336Z,3.85
2023-01-10T17:37:50.050Z,4.22
2023-01-10T17:40:17.868Z,3.45
2023-01-10T17:42:45.742Z,3.90
2023-01-10T17:45:16.921Z,4.13
2023-01-10T17:47:45.021Z,3.65
2023-01-10T17:50:12.733Z,3.40
2023-01-10T17:52:40.489Z,4.20
2023-01-10T17:55:08.855Z,3.65
2023-01-10T17:57:39.215Z,4.45
2023-01-10T18:00:07.446Z,4.10
2023-01-10T18:02:37.527Z,3.78
2023-01-10T18:05:05.464Z,4.32
2023-01-10T18:07:33.110Z,3.70
2023-01-10T18:10:00.809Z,4.28
2023-01-10T18:12:28.478Z,4.65
2023-01-10T18:14:56.618Z,4.80
2023-01-10T18:17:24.263Z,3.72
2023-01-10T18:19:53.319Z,4.65
2023-01-10T18:22:38.410Z,4.70
2023-01-10T18:25:07.154Z,4.65
2023-01-10T18:27:34.786Z,5.82
2023-01-10T18:30:02.502Z,4.05
2023-01-10T18:32:32.430Z,4.28
2023-01-10T18:35:01.598Z,4.93
2023-01-10T18:37:29.287Z,4.35
2023-01-10T18:39:57.068Z,4.68
2023-01-10T18:42:24.857Z,4.60
2023-01-10T18:44:52.515Z,4.40
2023-01-10T18:47:20.252Z,3.97
2023-01-10T18:49:48.334Z,4.82
2023-01-10T18:52:17.476Z,4.82
2023-01-10T18:54:45.137Z,4.13
2023-01-10T18:57:12.804Z,4.45
2023-01-10T18:59:40.634Z,5.15
2023-01-10T19:02:11.277Z,4.57
2023-01-10T19:04:39.025Z,3.45
2023-01-10T19:07:06.707Z,4.70
2023-01-10T19:09:36.143Z,6.35
2023-01-10T19:12:03.923Z,4.03
2023-01-10T19:14:31.566Z,5.13
2023-01-10T19:16:59.354Z,4.32
2023-01-10T19:19:27.115Z,4.68
2023-01-10T19:21:54.822Z,4.90
2023-01-10T19:24:24.156Z,4.30
2023-01-10T19:26:53.149Z,4.35
2023-01-10T19:29:20.934Z,4.68
2023-01-10T19:31:50.211Z,5.60
2023-01-10T19:34:18.071Z,5.50
2023-01-10T19:36:45.800Z,5.00
2023-01-10T19:39:14.282Z,4.05
2023-01-10T19:41:42.976Z,5.40
2023-01-10T19:44:13.700Z,3.80
2023-01-10T19:46:41.627Z,5.40
2023-01-10T19:49:09.380Z,4.30
2023-01-10T19:51:38.004Z,4.30
2023-01-10T19:54:06.338Z,4.68
2023-01-10T19:56:34.441Z,5.15
2023-01-10T19:59:02.390Z,4.57
2023-01-10T20:01:32.326Z,5.03
2023-01-10T20:04:02.192Z,5.15
2023-01-10T20:06:31.261Z,5.45
2023-01-10T20:08:59.405Z,4.82
2023-01-10T20:11:36.715Z,5.43
2023-01-10T20:14:04.774Z,5.40
2023-01-10T20:16:33.845Z,6.25
2023-01-10T20:19:01.514Z,5.63
2023-01-10T20:21:29.271Z,5.18
2023-01-10T20:23:56.914Z,5.15
2023-01-10T20:26:26.149Z,5.50
2023-01-10T20:28:56.126Z,6.13
2023-01-10T20:31:24.712Z,4.45
2023-01-10T20:33:53.825Z,4.88
2023-01-10T20:36:22.588Z,5.47
2023-01-10T20:38:50.658Z,4.63
2023-01-10T20:41:19.081Z,4.80
2023-01-10T20:43:46.855Z,4.57
2023-01-10T20:46:15.303Z,4.95
2023-01-10T20:48:43.363Z,4.82
2023-01-10T20:51:13.293Z,4.90
2023-01-10T20:53:40.918Z,4.25
2023-01-10T20:56:09.542Z,5.22
2023-01-10T20:58:37.297Z,5.07
2023-01-10T21:01:05.084Z,4.60
2023-01-10T21:03:32.731Z,4.13
2023-01-10T21:06:00.537Z,3.90
2023-01-10T21:08:30.203Z,4.15
2023-01-10T21:10:58.657Z,3.80
2023-01-10T21:13:26.661Z,4.05
2023-01-10T21:15:55.310Z,3.63
2023-01-10T21:18:24.786Z,4.10
2023-01-10T21:20:53.729Z,3.42
2023-01-10T21:23:21.946Z,3.92
2023-01-10T21:25:51.461Z,3.45
2023-01-10T21:28:19.212Z,3.33
2023-01-10T21:30:47.034Z,3.35
2023-01-10T21:33:14.800Z,3.50
2023-01-10T21:35:42.494Z,3.53
2023-01-10T21:38:10.179Z,3.47
2023-01-10T21:40:37.808Z,3.78
2023-01-10T21:43:07.330Z,3.50
2023-01-10T21:45:35.157Z,4.72
2023-01-10T21:48:02.840Z,3.45
2023-01-10T21:50:33.698Z,4.57
2023-01-10T21:53:01.543Z,3.42
2023-01-10T21:55:29.639Z,3.80
2023-01-10T21:57:57.286Z,2.63
2023-01-10T22:00:26.502Z,2.67
2023-01-10T22:02:54.246Z,4.32
2023-01-10T22:05:22.039Z,3.20
2023-01-10T22:07:49.724Z,2.83
2023-01-10T22:10:17.805Z,3.03
2023-01-10T22:12:45.485Z,3.50
2023-01-10T22:15:13.374Z,3.15
2023-01-10T22:17:42.471Z,3.05
2023-01-10T22:20:10.789Z,3.15
2023-01-10T22:22:38.574Z,4.03
2023-01-10T22:25:06.869Z,2.95
2023-01-10T22:27:34.568Z,2.92
2023-01-10T22:30:02.203Z,2.80
2023-01-10T22:32:30.050Z,3.40
2023-01-10T22:34:59.109Z,2.70
2023-01-10T22:37:26.777Z,2.70
2023-01-10T22:39:54.420Z,2.50
2023-01-10T22:42:22.083Z,3.22
2023-01-10T22:44:49.733Z,2.55
2023-01-10T22:47:17.529Z,3.13
2023-01-10T22:49:45.200Z,2.55
2023-01-10T22:52:14.541Z,3.88
2023-01-10T22:54:42.166Z,2.38
2023-01-10T22:57:09.821Z,2.17
2023-01-10T22:59:37.571Z,2.55
2023-01-10T23:02:05.315Z,2.40
2023-01-10T23:04:34.968Z,2.03
2023-01-10T23:07:02.725Z,3.03
2023-01-10T23:09:31.913Z,2.40
2023-01-10T23:11:59.823Z,3.10
2023-01-10T23:14:27.674Z,2.70
2023-01-10T23:16:55.663Z,1.88
2023-01-10T23:19:23.333Z,2.35
2023-01-10T23:21:51.740Z,1.80
2023-01-10T23:24:19.494Z,2.33
2023-01-10T23:26:49.942Z,1.80
2023-01-10T23:29:17.644Z,1.92
2023-01-10T23:31:49.595Z,2.03
2023-01-10T23:34:17.355Z,1.88
2023-01-10T23:36:45.015Z,1.83
2023-01-10T23:39:12.737Z,1.92
2023-01-10T23:41:40.432Z,2.40
2023-01-10T23:44:10.232Z,2.10
2023-01-10T23:46:37.942Z,2.05
2023-01-10T23:49:05.719Z,1.75
2023-01-10T23:51:33.506Z,1.85
2023-01-10T23:54:01.162Z,1.77
2023-01-10T23:56:28.870Z,1.95
2023-01-10T23:58:56.572Z,2.22
